Time;durP1;ratioP1;P1;durP2;ratioP2;P2;SDS_P1;SDS_P2;PMS_P1;PMS_P2;Temp;Humidity;BMP_temperature;BMP_pressure;BME280_temperature;BME280_humidity;BME280_pressure;Samples;Min_cycle;Max_cycle;Signal;HPM_P1;HPM_P2
2021/12/20 00:01:24;;;;;;;13.20;2.30;;;;;;;6.78;100.00;102966.44;10510223;28;20040;-77
2021/12/20 00:06:24;;;;;;;1.30;1.30;;;;;;;6.79;100.00;102949.31;10499693;28;20447;-77
2021/12/20 00:11:24;;;;;;;4.80;2.58;;;;;;;6.75;100.00;102968.38;10500012;28;20044;-77
2021/12/20 00:16:25;;;;;;;6.82;2.00;;;;;;;6.78;100.00;102942.22;10500660;28;20473;-77
2021/12/20 00:21:25;;;;;;;4.32;3.22;;;;;;;6.79;100.00;102954.69;10500104;28;20037;-77
2021/12/20 00:26:26;;;;;;;12.07;2.45;;;;;;;6.80;100.00;102940.25;10499565;28;20060;-77
2021/12/20 00:31:26;;;;;;;5.28;2.38;;;;;;;6.79;100.00;102944.75;10499460;28;20066;-77
2021/12/20 00:36:29;;;;;;;5.85;2.97;;;;;;;6.77;100.00;102945.91;10499447;28;20085;-77
2021/12/20 00:41:29;;;;;;;4.72;2.38;;;;;;;6.74;100.00;102950.53;10498857;28;20024;-78
2021/12/20 00:46:30;;;;;;;16.40;3.17;;;;;;;6.72;100.00;102938.16;10499158;28;20032;-77
2021/12/20 00:51:30;;;;;;;6.10;2.30;;;;;;;6.71;100.00;102945.38;10481161;28;20139;-77
2021/12/20 00:56:31;;;;;;;19.10;3.72;;;;;;;6.68;100.00;102932.16;10498835;28;20028;-78
2021/12/20 01:01:31;;;;;;;9.65;2.97;;;;;;;6.66;100.00;102936.81;10499391;28;20479;-77
2021/12/20 01:06:31;;;;;;;10.15;1.48;;;;;;;6.64;100.00;102922.63;10498891;28;20090;-78
2021/12/20 01:11:38;;;;;;;11.93;3.58;;;;;;;6.62;100.00;102929.97;10497628;28;20044;-77
2021/12/20 01:16:38;;;;;;;11.88;3.95;;;;;;;6.59;100.00;102938.28;10498518;28;20028;-77
2021/12/20 01:21:39;;;;;;;6.95;3.35;;;;;;;6.59;100.00;102924.81;10497202;28;20127;-78
2021/12/20 01:26:39;;;;;;;23.75;2.92;;;;;;;6.59;100.00;102930.19;10497096;28;20079;-78
2021/12/20 01:31:40;;;;;;;17.92;5.18;;;;;;;6.56;100.00;102933.13;10498468;28;20040;-78
2021/12/20 01:36:40;;;;;;;10.27;3.50;;;;;;;6.52;100.00;102924.44;10498266;28;20392;-78
2021/12/20 01:41:41;;;;;;;10.13;3.83;;;;;;;6.51;100.00;102919.22;10496906;28;20037;-78
2021/12/20 01:46:41;;;;;;;10.18;3.95;;;;;;;6.48;100.00;102930.22;10497951;28;20033;-78
2021/12/20 01:52:02;;;;;;;19.48;5.55;;;;;;;6.44;100.00;102928.72;10497977;28;20044;-77
2021/12/20 01:57:02;;;;;;;14.77;4.53;;;;;;;6.39;100.00;102926.41;10496665;28;20032;-76
2021/12/20 02:02:04;;;;;;;20.02;3.67;;;;;;;6.36;100.00;102923.09;10496523;28;20036;-77
2021/12/20 02:07:05;;;;;;;19.75;5.85;;;;;;;6.35;100.00;102926.75;10498242;28;20036;-78
2021/12/20 02:12:06;;;;;;;13.75;5.75;;;;;;;6.32;100.00;102926.97;10503833;28;20063;-78
2021/12/20 02:17:07;;;;;;;26.60;6.72;;;;;;;6.32;100.00;102914.41;10506991;28;20025;-78
2021/12/20 02:22:07;;;;;;;29.17;6.00;;;;;;;6.33;100.00;102910.72;10497973;28;20040;-77
2021/12/20 02:27:08;;;;;;;25.98;5.53;;;;;;;6.31;100.00;102909.97;10501547;28;20052;-78
2021/12/20 02:37:27;;;;;;;18.83;5.20;;;;;;;6.28;100.00;102903.00;10504141;28;20472;-78
2021/12/20 02:42:33;;;;;;;25.42;6.15;;;;;;;6.26;100.00;102902.28;10503143;28;20061;-78
2021/12/20 02:47:36;;;;;;;11.35;4.50;;;;;;;6.24;100.00;102908.75;10502687;28;20032;-77
2021/12/20 02:52:37;;;;;;;13.98;4.43;;;;;;;6.24;100.00;102903.38;10502394;28;20070;-78
2021/12/20 02:57:38;;;;;;;25.83;5.40;;;;;;;6.22;100.00;102900.81;10502513;28;20533;-78
2021/12/20 03:02:38;;;;;;;25.35;6.40;;;;;;;6.23;100.00;102888.22;10504137;28;20033;-77
2021/12/20 03:07:57;;;;;;;21.73;6.47;;;;;;;6.22;100.00;102897.25;10503301;28;20035;-77
2021/12/20 03:12:58;;;;;;;21.48;5.45;;;;;;;6.22;100.00;102892.75;10502638;28;20067;-78
2021/12/20 03:17:58;;;;;;;16.80;6.32;;;;;;;6.24;100.00;102895.31;10485157;28;20064;-78
2021/12/20 03:22:58;;;;;;;12.65;3.80;;;;;;;6.24;100.00;102888.09;10502334;28;20121;-78
2021/12/20 03:27:59;;;;;;;15.75;5.10;;;;;;;6.23;100.00;102891.75;10502665;28;20061;-77
2021/12/20 03:32:59;;;;;;;8.90;4.68;;;;;;;6.23;100.00;102890.91;10502221;28;20072;-78
2021/12/20 03:37:59;;;;;;;23.77;5.13;;;;;;;6.21;100.00;102893.72;10500109;28;20429;-78
2021/12/20 03:43:00;;;;;;;18.55;4.40;;;;;;;6.18;100.00;102890.41;10501307;28;20037;-78
2021/12/20 03:48:00;;;;;;;23.05;5.10;;;;;;;6.17;100.00;102889.56;10500348;28;20041;-79
2021/12/20 03:53:01;;;;;;;20.25;5.57;;;;;;;6.17;100.00;102883.31;10501491;28;20052;-78
2021/12/20 03:58:01;;;;;;;17.92;5.53;;;;;;;6.16;100.00;102889.66;10499878;28;20468;-78
2021/12/20 04:03:07;;;;;;;20.30;5.45;;;;;;;6.12;100.00;102886.34;10501135;28;20114;-77
2021/12/20 04:08:08;;;;;;;11.50;4.65;;;;;;;6.10;100.00;102885.63;10499940;28;20143;-78
2021/12/20 04:13:09;;;;;;;19.65;5.45;;;;;;;6.11;100.00;102887.34;10500283;28;20052;-78
2021/12/20 04:18:10;;;;;;;10.85;3.97;;;;;;;6.11;100.00;102881.97;10500691;28;20040;-79
2021/12/20 04:23:10;;;;;;;19.98;4.57;;;;;;;6.11;100.00;102895.41;10500533;28;20048;-79
2021/12/20 04:28:11;;;;;;;22.77;4.60;;;;;;;6.10;100.00;102896.41;10508733;28;20048;-79
2021/12/20 04:33:11;;;;;;;15.55;5.70;;;;;;;6.10;100.00;102896.41;10512341;28;20396;-79
2021/12/20 04:38:11;;;;;;;20.15;6.85;;;;;;;6.08;100.00;102901.03;10504834;28;20037;-79
2021/12/20 04:43:12;;;;;;;13.30;4.40;;;;;;;6.05;100.00;102904.81;10498949;28;20137;-80
2021/12/20 04:48:12;;;;;;;22.05;4.72;;;;;;;6.05;100.00;102895.88;10499342;28;20037;-80
2021/12/20 04:53:13;;;;;;;10.32;4.32;;;;;;;6.05;100.00;102898.56;10481846;28;20035;-79
2021/12/20 04:58:13;;;;;;;22.60;5.18;;;;;;;6.03;100.00;102895.13;10498866;28;20044;-79
2021/12/20 05:03:13;;;;;;;15.75;3.97;;;;;;;6.01;100.00;102894.41;10498434;28;20028;-79
2021/12/20 05:08:15;;;;;;;9.65;4.28;;;;;;;6.04;100.00;102886.09;10498258;28;20025;-79
2021/12/20 05:13:15;;;;;;;12.65;5.22;;;;;;;6.13;100.00;102885.41;10497143;28;20051;-79
2021/12/20 05:18:16;;;;;;;15.45;5.13;;;;;;;6.18;100.00;102891.25;10498871;28;20115;-79
2021/12/20 05:23:16;;;;;;;13.18;5.10;;;;;;;6.19;100.00;102893.00;10498729;28;20041;-79
2021/12/20 05:28:17;;;;;;;9.15;3.85;;;;;;;6.28;100.00;102900.31;10499292;28;20056;-80
2021/12/20 05:33:17;;;;;;;8.77;4.00;;;;;;;6.31;100.00;102898.38;10498377;28;20123;-79
2021/12/20 05:38:18;;;;;;;16.50;4.53;;;;;;;6.31;100.00;102898.38;10497532;28;20119;-79
2021/12/20 05:43:18;;;;;;;30.63;4.88;;;;;;;6.23;100.00;102909.75;10423400;28;20061;-81
2021/12/20 05:48:18;;;;;;;12.60;3.75;;;;;;;6.26;100.00;102902.28;10457214;28;20468;-81
2021/12/20 05:53:19;;;;;;;17.00;4.88;;;;;;;6.20;100.00;102901.91;10457493;28;20039;-81
2021/12/20 05:58:19;;;;;;;28.55;5.93;;;;;;;6.21;100.00;102904.47;10458817;28;20488;-80
2021/12/20 06:03:20;;;;;;;13.15;5.10;;;;;;;6.26;100.00;102902.28;10464494;28;20069;-79
2021/12/20 06:08:20;;;;;;;15.00;5.00;;;;;;;6.27;100.00;102904.00;10464235;28;20029;-79
2021/12/20 06:13:20;;;;;;;23.20;5.20;;;;;;;6.28;100.00;102913.75;10462796;28;20116;-80
2021/12/20 06:18:21;;;;;;;13.27;3.72;;;;;;;6.27;100.00;102914.75;10479814;28;20060;-80
2021/12/20 06:23:21;;;;;;;23.25;4.70;;;;;;;6.25;100.00;102905.09;10462990;28;20033;-73
2021/12/20 06:28:22;;;;;;;18.42;4.97;;;;;;;6.23;100.00;102913.28;10462313;28;20057;-78
2021/12/20 06:33:22;;;;;;;7.45;4.25;;;;;;;6.25;100.00;102902.41;10463416;28;20069;-79
2021/12/20 06:38:22;;;;;;;15.30;3.28;;;;;;;6.26;100.00;102914.88;10463487;28;20490;-79
2021/12/20 06:43:24;;;;;;;13.70;4.28;;;;;;;6.26;100.00;102913.06;10466653;28;20037;-79
2021/12/20 06:48:24;;;;;;;10.75;4.15;;;;;;;6.27;100.00;102913.91;10474772;28;20082;-79
2021/12/20 06:53:24;;;;;;;22.40;5.47;;;;;;;6.26;100.00;102921.13;10477773;28;20072;-79
2021/12/20 06:58:25;;;;;;;16.40;4.55;;;;;;;6.25;100.00;102916.72;10462200;28;20126;-78
2021/12/20 07:03:26;;;;;;;11.98;3.63;;;;;;;6.26;100.00;102915.75;10477557;28;20037;-79
2021/12/20 07:08:26;;;;;;;5.75;3.65;;;;;;;6.27;100.00;102911.22;10462777;28;20032;-79
2021/12/20 07:13:27;;;;;;;9.20;2.80;;;;;;;6.28;100.00;102921.84;10476164;28;20064;-79
2021/12/20 07:18:27;;;;;;;5.25;2.90;;;;;;;6.28;100.00;102916.47;10460792;28;20449;-79
2021/12/20 07:23:27;;;;;;;15.57;3.45;;;;;;;6.25;100.00;102916.72;10462039;28;20048;-80
2021/12/20 07:28:28;;;;;;;13.30;3.72;;;;;;;6.23;100.00;102907.91;10461691;28;20140;-79
2021/12/20 07:33:28;;;;;;;6.07;3.67;;;;;;;6.21;100.00;102922.44;10460330;28;20120;-79
2021/12/20 07:38:29;;;;;;;19.13;5.00;;;;;;;6.19;100.00;102922.59;10459926;28;20037;-80
2021/12/20 07:43:29;;;;;;;15.48;3.80;;;;;;;6.18;100.00;102922.69;10460051;28;20036;-79
2021/12/20 07:48:29;;;;;;;13.10;4.00;;;;;;;6.18;100.00;102928.06;10459756;28;20044;-79
2021/12/20 07:53:30;;;;;;;12.30;4.32;;;;;;;6.16;100.00;102928.19;10462340;28;20396;-79
2021/12/20 07:58:31;;;;;;;22.48;3.88;;;;;;;6.15;100.00;102934.53;10459107;28;20178;-79
2021/12/20 08:03:32;;;;;;;9.05;3.15;;;;;;;6.19;100.00;102927.09;10459350;28;20029;-79
2021/12/20 08:08:32;;;;;;;6.03;2.75;;;;;;;6.16;100.00;102936.28;10458016;28;20040;-79
2021/12/20 08:13:33;;;;;;;6.65;3.47;;;;;;;6.12;100.00;102942.84;10459190;28;20044;-79
2021/12/20 08:18:33;;;;;;;11.75;3.10;;;;;;;6.15;100.00;102944.44;10459874;28;20109;-78
2021/12/20 08:23:34;;;;;;;10.85;3.88;;;;;;;6.17;100.00;102945.19;10459740;28;20499;-79
2021/12/20 08:28:35;;;;;;;6.22;3.53;;;;;;;6.19;100.00;102949.47;10474687;28;20049;-79
2021/12/20 08:33:36;;;;;;;13.27;3.42;;;;;;;6.21;100.00;102942.13;10458064;28;20366;-79
2021/12/20 08:38:36;;;;;;;16.52;4.35;;;;;;;6.20;100.00;102948.50;10458293;28;20048;-79
2021/12/20 08:43:37;;;;;;;17.33;4.22;;;;;;;6.22;100.00;102957.31;10458723;28;20041;-79
2021/12/20 08:48:38;;;;;;;15.48;3.55;;;;;;;6.27;100.00;102949.72;10460325;28;20120;-79
2021/12/20 08:53:40;;;;;;;9.73;3.15;;;;;;;6.31;100.00;102944.97;10460035;28;20374;-78
2021/12/20 08:58:40;;;;;;;8.75;3.05;;;;;;;6.27;100.00;102960.50;10459620;28;20032;-79
2021/12/20 09:03:40;;;;;;;9.88;2.97;;;;;;;6.20;100.00;102959.25;10467391;28;20037;-79
2021/12/20 09:08:42;;;;;;;4.78;3.65;;;;;;;6.27;100.00;102962.34;10471954;28;20029;-79
2021/12/20 09:13:42;;;;;;;6.15;3.08;;;;;;;6.36;100.00;102964.31;10457558;28;20059;-79
2021/12/20 09:18:43;;;;;;;5.03;2.63;;;;;;;6.43;100.00;102973.63;10457311;28;20033;-79
2021/12/20 09:23:43;;;;;;;10.82;4.47;;;;;;;6.51;100.00;102970.34;10455931;28;20121;-79
2021/12/20 09:28:44;;;;;;;16.95;3.67;;;;;;;6.54;100.00;102970.09;10457163;28;20056;-79
2021/12/20 09:33:44;;;;;;;8.98;2.35;;;;;;;6.58;100.00;102971.56;10457243;28;20120;-79
2021/12/20 09:38:45;;;;;;;12.27;2.95;;;;;;;6.66;100.00;102969.13;10456986;28;20033;-79
2021/12/20 09:43:49;;;;;;;13.38;3.83;;;;;;;6.67;100.00;102961.91;10455561;28;20088;-79
2021/12/20 09:48:49;;;;;;;3.53;2.47;;;;;;;6.70;100.00;102978.69;10455913;28;20055;-77
2021/12/20 09:53:50;;;;;;;18.05;4.78;;;;;;;6.64;100.00;102981.88;10455760;28;20037;-79
2021/12/20 09:58:52;;;;;;;10.02;3.88;;;;;;;6.64;100.00;102981.88;10454656;28;20036;-79
2021/12/20 10:03:55;;;;;;;9.90;3.70;;;;;;;6.62;100.00;102977.56;10455628;28;20041;-78
2021/12/20 10:09:03;;;;;;;7.47;3.47;;;;;;;6.70;100.00;102985.88;10454609;28;20033;-79
2021/12/20 10:14:11;;;;;;;20.00;4.10;;;;;;;6.79;100.00;102978.91;10439051;28;20041;-79
2021/12/20 10:19:31;;;;;;;11.32;3.20;;;;;;;6.89;100.00;102980.78;10422041;28;20111;-79
2021/12/20 10:24:33;;;;;;;9.60;4.25;;;;;;;6.95;100.00;102982.09;10455308;28;20475;-78
2021/12/20 10:29:38;;;;;;;9.90;3.55;;;;;;;7.02;100.00;102982.47;10455556;28;20493;-78
2021/12/20 10:34:38;;;;;;;11.50;4.40;;;;;;;6.97;100.00;102982.84;10453640;28;20043;-79
2021/12/20 10:39:47;;;;;;;5.13;3.17;;;;;;;7.09;100.00;102975.63;10454616;28;20036;-78
2021/12/20 10:45:15;;;;;;;4.63;2.95;;;;;;;7.02;100.00;102975.25;10470240;28;20036;-79
2021/12/20 10:50:25;;;;;;;12.80;3.70;;;;;;;7.13;100.00;102977.09;10462537;28;20464;-79
2021/12/20 10:55:58;;;;;;;9.23;3.65;;;;;;;7.08;100.00;102990.06;10462033;28;20036;-79
2021/12/20 11:11:40;;;;;;;4.28;2.97;;;;;;;7.30;100.00;102973.88;10477735;28;20037;-78
2021/12/20 11:16:46;;;;;;;9.25;3.13;;;;;;;7.35;100.00;102970.81;10466789;28;20445;-78
2021/12/20 11:22:22;;;;;;;5.82;2.80;;;;;;;7.46;100.00;102977.00;10467581;28;20056;-78
2021/12/20 11:27:39;;;;;;;3.00;1.20;;;;;;;7.29;100.00;102972.16;10430724;28;20041;-79
2021/12/20 11:32:40;;;;;;;9.88;2.70;;;;;;;7.24;100.00;102974.34;10461745;28;20139;-79
2021/12/20 11:37:40;;;;;;;7.93;2.22;;;;;;;7.26;100.00;102969.72;10460658;28;20112;-78
2021/12/20 11:42:41;;;;;;;6.47;2.88;;;;;;;7.29;100.00;102972.16;10461054;28;20440;-79
2021/12/20 11:47:56;;;;;;;5.88;1.88;;;;;;;7.35;100.00;102965.41;10459722;28;20037;-78
2021/12/20 11:53:07;;;;;;;8.25;2.30;;;;;;;7.39;100.00;102964.19;10444062;28;20040;-79
2021/12/20 11:58:21;;;;;;;2.22;1.95;;;;;;;7.31;100.00;102969.34;10459856;28;20119;-79
2021/12/20 12:03:30;;;;;;;6.78;1.98;;;;;;;7.32;100.00;102961.13;10460963;28;20036;-79
2021/12/20 12:08:34;;;;;;;5.70;2.33;;;;;;;7.22;100.00;102962.88;10460136;28;20476;-78
2021/12/20 12:13:46;;;;;;;4.30;2.70;;;;;;;7.25;100.00;102961.78;10457937;28;20396;-78
2021/12/20 12:18:48;;;;;;;10.55;2.58;;;;;;;7.09;100.00;102959.47;10460856;28;20033;-79
2021/12/20 12:23:49;;;;;;;7.22;2.42;;;;;;;7.02;100.00;102966.31;10459975;28;20033;-78
2021/12/20 12:28:55;;;;;;;10.95;2.78;;;;;;;6.92;100.00;102964.38;10459269;28;20049;-78
2021/12/20 12:34:08;;;;;;;5.25;2.63;;;;;;;6.86;100.00;102951.41;10460834;28;20117;-78
2021/12/20 12:39:27;;;;;;;2.97;1.70;;;;;;;6.75;100.00;102941.47;10459251;28;20051;-79
2021/12/20 12:44:31;;;;;;;10.07;1.92;;;;;;;6.76;100.00;102939.63;10457169;28;20481;-77
2021/12/20 12:49:37;;;;;;;5.57;2.15;;;;;;;6.77;100.00;102938.66;10456978;28;20139;-78
2021/12/20 12:55:08;;;;;;;3.78;2.03;;;;;;;6.51;100.00;102938.91;10473799;28;20040;-78
2021/12/20 13:00:23;;;;;;;2.25;1.48;;;;;;;6.52;100.00;102928.97;10440505;28;20052;-78
2021/12/20 13:05:26;;;;;;;4.13;1.90;;;;;;;6.43;100.00;102933.25;10459082;28;20037;-77
2021/12/20 13:10:33;;;;;;;2.38;1.55;;;;;;;6.38;100.00;102931.88;10458800;28;20040;-79
2021/12/20 13:15:40;;;;;;;1.67;1.58;;;;;;;6.38;100.00;102927.38;10459256;28;20033;-77
2021/12/20 13:20:58;;;;;;;3.60;1.45;;;;;;;6.49;100.00;102924.69;10459438;28;20064;-77
2021/12/20 13:26:00;;;;;;;3.65;1.40;;;;;;;6.62;100.00;102919.19;10459536;28;20041;-77
2021/12/20 13:31:10;;;;;;;6.05;1.73;;;;;;;6.72;100.00;102917.47;10461964;28;20041;-78
2021/12/20 13:36:12;;;;;;;5.82;2.47;;;;;;;6.65;100.00;102926.19;10467659;28;20037;-78
2021/12/20 13:41:22;;;;;;;2.45;1.48;;;;;;;6.40;100.00;102921.88;10467735;28;20032;-77
2021/12/20 13:51:54;;;;;;;12.93;3.47;;;;;;;6.14;100.00;102924.75;10455819;28;20029;-78
2021/12/20 13:57:14;;;;;;;3.53;1.77;;;;;;;6.18;100.00;102926.22;10458315;28;20064;-76
2021/12/20 14:02:45;;;;;;;10.77;2.33;;;;;;;6.17;100.00;102929.91;10472273;28;20465;-77
2021/12/20 14:07:53;;;;;;;2.95;1.50;;;;;;;6.16;100.00;102928.19;10456747;28;20132;-78
2021/12/20 14:13:05;;;;;;;2.10;1.95;;;;;;;6.07;100.00;102931.59;10456920;28;20037;-77
2021/12/20 14:18:15;;;;;;;2.10;1.23;;;;;;;6.12;100.00;102921.31;10455872;28;20037;-78
2021/12/20 14:23:22;;;;;;;3.33;1.65;;;;;;;6.18;100.00;102931.59;10463759;28;20504;-78
2021/12/20 14:28:26;;;;;;;4.85;2.38;;;;;;;6.24;100.00;102924.91;10464704;28;20090;-78
2021/12/20 14:33:27;;;;;;;2.10;1.60;;;;;;;6.27;100.00;102922.81;10445881;28;20039;-77
2021/12/20 14:38:34;;;;;;;2.22;1.95;;;;;;;6.26;100.00;102915.75;10463742;28;20045;-77
2021/12/20 14:43:35;;;;;;;3.28;1.35;;;;;;;6.31;100.00;102926.13;10461364;28;20029;-77
2021/12/20 14:48:45;;;;;;;3.03;2.30;;;;;;;6.29;100.00;102920.03;10463530;28;20084;-76
2021/12/20 14:53:45;;;;;;;3.65;1.50;;;;;;;6.27;100.00;102925.53;10446630;28;20029;-77
2021/12/20 14:58:45;;;;;;;5.05;1.90;;;;;;;6.32;100.00;102921.59;10461457;28;20078;-78
2021/12/20 15:03:46;;;;;;;1.42;1.33;;;;;;;6.30;100.00;102921.75;10462136;28;20029;-78
2021/12/20 15:08:46;;;;;;;6.72;1.80;;;;;;;6.28;100.00;102921.84;10462518;28;20029;-78
2021/12/20 15:13:47;;;;;;;15.48;1.85;;;;;;;6.28;100.00;102905.69;10463566;28;20033;-77
2021/12/20 15:18:47;;;;;;;4.60;2.10;;;;;;;6.26;100.00;102914.88;10465336;28;20051;-77
2021/12/20 15:23:48;;;;;;;3.63;1.75;;;;;;;6.21;100.00;102909.84;10464584;28;20045;-77
2021/12/20 15:28:48;;;;;;;4.32;2.50;;;;;;;6.18;100.00;102915.47;10462364;28;20056;-77
2021/12/20 15:33:48;;;;;;;3.65;2.13;;;;;;;6.15;100.00;102906.78;10477356;28;20434;-77
2021/12/20 15:38:49;;;;;;;2.50;1.80;;;;;;;6.14;100.00;102908.63;10462042;28;20499;-77
2021/12/20 15:43:51;;;;;;;5.55;2.03;;;;;;;6.13;100.00;102896.16;10460088;28;20456;-77
2021/12/20 15:48:51;;;;;;;9.85;2.50;;;;;;;6.11;100.00;102910.69;10470274;28;20029;-78
2021/12/20 15:53:52;;;;;;;2.45;1.80;;;;;;;6.07;100.00;102911.91;10470767;28;20056;-77
2021/12/20 15:58:55;;;;;;;1.92;1.70;;;;;;;6.01;100.00;102913.25;10460617;28;20060;-77
2021/12/20 16:03:55;;;;;;;11.70;3.55;;;;;;;5.93;100.00;102897.69;10459909;28;20033;-77
2021/12/20 16:08:56;;;;;;;20.52;3.53;;;;;;;5.89;100.00;102906.06;10457767;28;20033;-77
2021/12/20 16:13:56;;;;;;;16.73;3.67;;;;;;;5.87;100.00;102902.63;10459091;28;20048;-78
2021/12/20 16:18:56;;;;;;;6.95;2.20;;;;;;;5.82;100.00;102903.00;10459913;28;20033;-76
2021/12/20 16:23:57;;;;;;;8.77;3.08;;;;;;;5.79;100.00;102901.41;10457321;28;20053;-77
2021/12/20 16:28:57;;;;;;;8.15;2.97;;;;;;;5.71;100.00;102903.84;10458646;28;20068;-77
2021/12/20 16:33:58;;;;;;;5.00;3.25;;;;;;;5.64;100.00;102904.41;10457304;28;20123;-76
2021/12/20 16:38:58;;;;;;;7.10;2.72;;;;;;;5.54;100.00;102904.22;10458885;28;20033;-77
2021/12/20 16:43:59;;;;;;;3.70;1.98;;;;;;;5.43;100.00;102902.38;10455331;28;20029;-77
2021/12/20 16:49:03;;;;;;;8.32;3.28;;;;;;;5.41;100.00;102906.13;10457326;28;20473;-77
2021/12/20 16:54:09;;;;;;;6.18;2.60;;;;;;;5.44;100.00;102909.44;10459644;28;20412;-77
2021/12/20 16:59:12;;;;;;;17.05;4.63;;;;;;;5.47;100.00;102903.00;10460063;28;20098;-77
2021/12/20 17:04:37;;;;;;;7.72;3.90;;;;;;;5.47;100.00;102911.06;10459269;28;20048;-77
2021/12/20 17:09:33;;;;;;;18.92;4.50;;;;;;;5.38;100.00;102909.91;10458387;28;20480;-77
2021/12/20 17:14:35;;;;;;;12.30;5.35;;;;;;;5.32;100.00;102903.16;10457782;28;20032;-76
2021/12/20 17:19:35;;;;;;;3.75;3.47;;;;;;;5.20;100.00;102900.50;10457928;28;20039;-76
2021/12/20 17:24:36;;;;;;;12.07;4.00;;;;;;;4.98;100.00;102903.91;10456685;28;20048;-76
2021/12/20 17:29:36;;;;;;;11.32;4.63;;;;;;;4.86;100.00;102905.69;10458671;28;20519;-76
2021/12/20 17:34:37;;;;;;;7.50;4.25;;;;;;;4.80;100.00;102906.97;10457352;28;20045;-76
2021/12/20 17:39:37;;;;;;;9.65;3.45;;;;;;;4.70;100.00;102908.59;10457513;28;20523;-77
2021/12/20 17:44:38;;;;;;;15.75;4.10;;;;;;;4.61;100.00;102906.56;10456473;28;20055;-76
2021/12/20 17:49:38;;;;;;;8.10;3.72;;;;;;;4.56;100.00;102914.97;10456130;28;20041;-76
2021/12/20 17:54:38;;;;;;;5.45;4.38;;;;;;;4.48;100.00;102914.63;10460511;28;20037;-76
2021/12/20 17:59:39;;;;;;;10.55;4.18;;;;;;;4.42;100.00;102921.28;10465515;28;20380;-76
2021/12/20 18:04:39;;;;;;;7.80;3.58;;;;;;;4.39;100.00;102910.75;10468106;28;20549;-76
2021/12/20 18:09:40;;;;;;;5.03;3.30;;;;;;;4.34;100.00;102915.63;10476696;28;20044;-76
2021/12/20 18:14:40;;;;;;;12.38;4.22;;;;;;;4.33;100.00;102921.91;10464807;28;20032;-76
2021/12/20 18:19:40;;;;;;;12.50;4.45;;;;;;;4.33;100.00;102916.56;10463998;28;20086;-76
2021/12/20 18:24:41;;;;;;;11.35;4.88;;;;;;;4.31;100.00;102917.66;10462840;28;20048;-75
2021/12/20 18:29:41;;;;;;;9.88;4.47;;;;;;;4.24;100.00;102927.06;10479490;28;20186;-76
2021/12/20 18:34:42;;;;;;;7.60;5.18;;;;;;;4.20;100.00;102916.56;10464088;28;20036;-75
2021/12/20 18:39:42;;;;;;;5.82;4.30;;;;;;;4.24;100.00;102914.50;10464310;28;20029;-77
2021/12/20 18:44:42;;;;;;;9.57;3.80;;;;;;;4.25;100.00;102910.88;10465348;28;20079;-77
2021/12/20 18:49:43;;;;;;;14.52;6.10;;;;;;;4.26;100.00;102923.31;10463415;28;20040;-76
2021/12/20 18:54:44;;;;;;;11.43;4.97;;;;;;;4.24;100.00;102914.50;10462363;28;20118;-76
2021/12/20 18:59:44;;;;;;;11.88;5.38;;;;;;;4.21;100.00;102917.41;10462459;28;20041;-76
2021/12/20 19:04:44;;;;;;;8.20;5.07;;;;;;;4.08;100.00;102913.84;10461464;28;20446;-77
2021/12/20 19:09:57;;;;;;;6.90;5.10;;;;;;;3.92;100.00;102917.63;10460537;28;20392;-76
2021/12/20 19:14:57;;;;;;;17.60;4.85;;;;;;;3.68;99.96;102913.91;10461850;28;20118;-77
2021/12/20 19:19:58;;;;;;;10.23;5.18;;;;;;;3.40;98.26;102920.22;10462099;28;20061;-76
2021/12/20 19:24:58;;;;;;;18.58;5.85;;;;;;;3.30;98.66;102914.63;10461510;28;20419;-75
2021/12/20 19:29:59;;;;;;;8.90;5.00;;;;;;;3.18;97.96;102915.41;10460870;28;20065;-77
2021/12/20 19:34:59;;;;;;;22.98;7.75;;;;;;;2.93;97.13;102914.31;10463140;28;20053;-76
2021/12/20 19:40:00;;;;;;;18.33;8.82;;;;;;;2.66;95.71;102916.94;10460011;28;20056;-77
2021/12/20 19:45:01;;;;;;;12.52;5.53;;;;;;;2.46;96.10;102918.19;10460872;28;20100;-77
2021/12/20 19:50:01;;;;;;;5.82;5.10;;;;;;;2.35;95.88;102914.44;10460859;28;20033;-75
2021/12/20 19:55:03;;;;;;;16.10;5.65;;;;;;;2.22;95.55;102923.22;10460749;28;20037;-75
2021/12/20 20:00:04;;;;;;;7.32;4.18;;;;;;;2.05;95.74;102921.56;10460764;28;20115;-75
2021/12/20 20:05:05;;;;;;;5.82;4.95;;;;;;;1.90;95.59;102918.97;10459061;28;20033;-76
2021/12/20 20:10:06;;;;;;;11.35;7.03;;;;;;;1.85;97.12;102916.53;10458757;28;20111;-75
2021/12/20 20:15:07;;;;;;;15.70;6.90;;;;;;;1.97;97.73;102915.81;10459753;28;20124;-75
2021/12/20 20:20:07;;;;;;;15.23;6.82;;;;;;;2.01;98.20;102917.38;10479491;28;20135;-77
2021/12/20 20:25:08;;;;;;;15.65;8.23;;;;;;;2.05;98.47;102915.38;10466520;28;20524;-75
2021/12/20 20:30:09;;;;;;;20.83;7.75;;;;;;;2.09;99.25;102915.09;10475790;28;20136;-75
2021/12/20 20:35:09;;;;;;;36.95;8.38;;;;;;;2.13;98.54;102910.41;10459306;28;20056;-75
2021/12/20 20:40:10;;;;;;;18.77;6.95;;;;;;;2.10;99.26;102922.13;10459150;28;20051;-76
2021/12/20 20:45:12;;;;;;;15.18;8.45;;;;;;;2.03;98.24;102919.94;10441269;28;20068;-76
2021/12/20 20:50:12;;;;;;;16.60;7.28;;;;;;;1.90;98.65;102914.47;10458218;28;20033;-75
2021/12/20 20:55:13;;;;;;;18.60;6.63;;;;;;;1.84;99.00;102917.50;10457279;28;20041;-75
2021/12/20 21:05:33;;;;;;;16.08;7.68;;;;;;;1.63;97.51;102912.50;10456946;28;20111;-75
2021/12/20 21:10:33;;;;;;;11.80;7.57;;;;;;;1.59;98.49;102913.59;10472376;28;20119;-75
2021/12/20 21:15:34;;;;;;;22.88;8.70;;;;;;;1.58;98.99;102911.03;10438284;28;20065;-74
2021/12/20 21:20:34;;;;;;;19.85;8.10;;;;;;;1.53;99.79;102903.31;10457030;28;20033;-75
2021/12/20 21:25:34;;;;;;;14.93;8.80;;;;;;;1.49;99.52;102898.22;10457287;28;20124;-76
2021/12/20 21:30:36;;;;;;;11.30;7.88;;;;;;;1.50;99.70;102908.81;10455714;28;20052;-75
2021/12/20 21:35:36;;;;;;;17.67;10.35;;;;;;;1.54;99.72;102901.50;10456136;28;20033;-74
2021/12/20 21:40:37;;;;;;;15.40;9.15;;;;;;;1.46;98.41;102909.06;10455025;28;20037;-75
2021/12/20 21:45:37;;;;;;;19.45;8.98;;;;;;;1.40;99.49;102910.28;10455846;28;20102;-75
2021/12/20 21:50:37;;;;;;;16.90;9.25;;;;;;;1.30;98.11;102909.09;10455952;28;20041;-74
2021/12/20 21:55:38;;;;;;;17.25;9.88;;;;;;;1.19;98.14;102906.19;10456976;28;20183;-75
2021/12/20 22:00:38;;;;;;;11.48;8.10;;;;;;;0.99;96.29;102908.19;10456006;28;20040;-75
2021/12/20 22:05:39;;;;;;;21.42;8.77;;;;;;;0.81;95.80;102901.19;10454493;28;20040;-74
2021/12/20 22:10:39;;;;;;;14.45;9.07;;;;;;;0.64;94.90;102908.31;10456090;28;20036;-74
2021/12/20 22:15:39;;;;;;;18.88;9.95;;;;;;;0.55;95.50;102906.13;10458456;28;20072;-75
2021/12/20 22:20:40;;;;;;;11.48;9.27;;;;;;;0.45;95.34;102903.13;10458160;28;20504;-74
2021/12/20 22:25:40;;;;;;;14.18;8.60;;;;;;;0.31;94.81;102899.44;10456954;28;20041;-75
2021/12/20 22:30:41;;;;;;;24.73;11.45;;;;;;;0.22;94.98;102888.34;10456261;28;20053;-74
2021/12/20 22:35:41;;;;;;;15.10;10.15;;;;;;;0.15;95.54;102892.25;10463548;28;20029;-75
2021/12/20 22:40:42;;;;;;;28.60;9.73;;;;;;;0.15;96.18;102897.59;10468114;28;20388;-74
2021/12/20 22:45:42;;;;;;;19.52;10.93;;;;;;;0.11;96.20;102897.84;10464800;28;20477;-75
2021/12/20 22:50:43;;;;;;;13.80;8.07;;;;;;;0.02;95.73;102896.50;10463957;28;20438;-75
2021/12/20 22:55:43;;;;;;;16.27;10.85;;;;;;;0.02;96.56;102895.66;10463066;28;20033;-75
2021/12/20 23:00:44;;;;;;;18.42;10.20;;;;;;;-0.07;95.35;102895.19;10462608;28;20055;-75
2021/12/20 23:05:44;;;;;;;23.60;11.50;;;;;;;-0.15;95.62;102902.72;10462341;28;20032;-75
2021/12/20 23:10:45;;;;;;;22.27;10.10;;;;;;;-0.18;96.20;102907.34;10462012;28;20499;-74
2021/12/20 23:15:46;;;;;;;20.10;11.00;;;;;;;-0.20;96.28;102888.78;10460395;28;20087;-75
2021/12/20 23:20:47;;;;;;;19.27;10.63;;;;;;;-0.20;96.85;102893.25;10462230;28;20044;-75
2021/12/20 23:25:49;;;;;;;24.85;10.68;;;;;;;-0.22;96.90;102889.78;10444881;28;20193;-75
2021/12/20 23:30:49;;;;;;;12.65;9.75;;;;;;;-0.37;95.83;102894.97;10464233;28;20049;-75